createdAt,value
2023-10-01T00:00:27.164Z,77.81
2023-10-01T00:02:55.225Z,78.17
2023-10-01T00:05:25.593Z,78.26
2023-10-01T00:07:53.871Z,78.01
2023-10-01T00:10:24.044Z,78.12
2023-10-01T00:12:55.164Z,77.84
2023-10-01T00:15:27.341Z,78.15
2023-10-01T00:17:55.566Z,78.16
2023-10-01T00:20:25.620Z,78.15
2023-10-01T00:22:58.091Z,78.13
2023-10-01T00:25:28.183Z,78.31
2023-10-01T00:27:57.848Z,78.42
2023-10-01T00:30:32.322Z,78.44
2023-10-01T00:33:00.904Z,78.42
2023-10-01T00:35:28.790Z,78.52
2023-10-01T00:37:56.685Z,78.40
2023-10-01T00:40:24.885Z,78.68
2023-10-01T00:42:53.204Z,78.66
2023-10-01T00:45:21.854Z,78.70
2023-10-01T00:47:52.324Z,78.47
2023-10-01T00:50:23.807Z,78.66
2023-10-01T00:52:54.096Z,78.83
2023-10-01T00:55:22.984Z,79.04
2023-10-01T00:57:51.508Z,79.23
2023-10-01T01:00:21.412Z,79.10
2023-10-01T01:02:59.405Z,78.66
2023-10-01T01:05:29.834Z,78.65
2023-10-01T01:08:02.206Z,78.77
2023-10-01T01:10:33.193Z,78.56
2023-10-01T01:13:01.485Z,79.09
2023-10-01T01:15:35.248Z,79.06
2023-10-01T01:18:08.744Z,79.02
2023-10-01T01:20:44.498Z,78.73
2023-10-01T01:23:18.353Z,78.42
2023-10-01T01:25:46.552Z,78.71
2023-10-01T01:28:25.312Z,78.94
2023-10-01T01:30:54.405Z,78.75
2023-10-01T01:33:27.471Z,79.13
2023-10-01T01:35:56.169Z,79.06
2023-10-01T01:38:26.723Z,79.55
2023-10-01T01:40:54.733Z,80.44
2023-10-01T01:43:31.641Z,79.96
2023-10-01T01:46:01.819Z,79.85
2023-10-01T01:48:32.823Z,79.53
2023-10-01T01:51:02.748Z,79.52
2023-10-01T01:53:36.305Z,79.31
2023-10-01T01:56:09.413Z,79.49
2023-10-01T01:58:38.585Z,79.55
2023-10-01T02:01:24.618Z,79.39
2023-10-01T02:03:53.676Z,79.33
2023-10-01T02:06:29.172Z,79.18
2023-10-01T02:09:00.432Z,79.71
2023-10-01T02:11:33.856Z,79.87
2023-10-01T02:14:04.726Z,79.97
2023-10-01T02:16:38.792Z,79.71
2023-10-01T02:19:19.438Z,79.69
2023-10-01T02:21:54.409Z,79.34
2023-10-01T02:24:38.913Z,79.11
2023-10-01T02:27:10.679Z,79.04
2023-10-01T02:29:47.311Z,79.00
2023-10-01T02:32:16.355Z,79.28
2023-10-01T02:34:44.717Z,79.29
2023-10-01T02:37:16.922Z,78.57
2023-10-01T02:39:45.480Z,77.60
2023-10-01T02:42:22.856Z,78.57
2023-10-01T02:44:55.172Z,78.79
2023-10-01T02:47:26.006Z,79.17
2023-10-01T02:49:59.655Z,79.24
2023-10-01T02:52:38.126Z,80.08
2023-10-01T02:55:19.392Z,80.65
2023-10-01T02:57:51.658Z,80.70
2023-10-01T03:00:21.749Z,80.62
2023-10-01T03:02:54.679Z,80.15
2023-10-01T03:05:30.284Z,80.22
2023-10-01T03:07:59.104Z,80.50
2023-10-01T03:10:31.317Z,80.07
2023-10-01T03:13:00.525Z,80.09
2023-10-01T03:15:30.771Z,79.97
2023-10-01T03:17:59.756Z,79.80
2023-10-01T03:20:47.475Z,79.75
2023-10-01T03:23:26.712Z,79.78
2023-10-01T03:26:00.943Z,79.98
2023-10-01T03:28:34.805Z,79.86
2023-10-01T03:31:09.264Z,80.30
2023-10-01T03:33:40.037Z,80.24
2023-10-01T03:36:12.398Z,80.26
2023-10-01T03:38:40.732Z,80.30
2023-10-01T03:41:11.030Z,80.03
2023-10-01T03:43:39.051Z,80.04
2023-10-01T03:46:27.443Z,79.87
2023-10-01T03:49:03.020Z,80.07
2023-10-01T03:51:50.300Z,80.05
2023-10-01T03:54:20.593Z,79.97
2023-10-01T03:56:58.114Z,80.10
2023-10-01T03:59:28.830Z,80.02
2023-10-01T04:02:04.029Z,80.23
2023-10-01T04:04:33.989Z,80.15
2023-10-01T04:07:11.341Z,80.30
2023-10-01T04:09:47.716Z,80.37
2023-10-01T04:12:33.685Z,80.32
2023-10-01T04:15:04.900Z,80.82
2023-10-01T04:17:37.089Z,80.96
2023-10-01T04:20:15.238Z,80.63
2023-10-01T04:22:43.295Z,80.55
2023-10-01T04:25:14.014Z,80.49
2023-10-01T04:27:46.866Z,80.53
2023-10-01T04:30:16.066Z,80.16
2023-10-01T04:32:44.205Z,80.21
2023-10-01T04:35:19.158Z,80.23
2023-10-01T04:37:49.495Z,80.11
2023-10-01T04:40:41.002Z,80.42
2023-10-01T04:43:12.373Z,80.29
2023-10-01T04:45:42.265Z,80.13
2023-10-01T04:48:16.954Z,79.98
2023-10-01T04:50:47.568Z,79.78
2023-10-01T04:53:15.867Z,80.14
2023-10-01T04:55:44.262Z,79.81
2023-10-01T04:58:16.339Z,80.01
2023-10-01T05:00:47.084Z,79.87
2023-10-01T05:03:17.237Z,80.22
2023-10-01T05:05:46.028Z,80.36
2023-10-01T05:08:14.928Z,80.22
2023-10-01T05:10:57.546Z,80.21
2023-10-01T05:13:26.953Z,80.07
2023-10-01T05:15:57.950Z,80.11
2023-10-01T05:18:27.989Z,79.99
2023-10-01T05:20:59.699Z,79.80
2023-10-01T05:23:28.604Z,79.77
2023-10-01T05:25:57.554Z,79.97
2023-10-01T05:28:35.701Z,80.18
2023-10-01T05:31:07.418Z,80.49
2023-10-01T05:33:35.487Z,80.52
2023-10-01T05:36:05.609Z,80.29
2023-10-01T05:38:36.642Z,80.22
2023-10-01T05:41:05.690Z,80.38
2023-10-01T05:43:38.662Z,80.29
2023-10-01T05:46:10.870Z,80.08
2023-10-01T05:48:40.558Z,80.52
2023-10-01T05:51:12.486Z,80.65
2023-10-01T05:53:41.751Z,80.93
2023-10-01T05:56:11.408Z,80.94
2023-10-01T05:58:41.237Z,81.10
2023-10-01T06:01:15.243Z,81.19
2023-10-01T06:03:44.710Z,81.17
2023-10-01T06:06:15.541Z,81.13
2023-10-01T06:08:47.522Z,81.02
2023-10-01T06:11:17.158Z,81.27
2023-10-01T06:13:52.472Z,81.93
2023-10-01T06:16:25.230Z,81.90
2023-10-01T06:18:58.442Z,81.79
2023-10-01T06:21:29.048Z,81.26
2023-10-01T06:23:59.687Z,81.47
2023-10-01T06:26:34.868Z,81.61
2023-10-01T06:29:04.969Z,81.55
2023-10-01T06:31:49.464Z,81.36
2023-10-01T06:34:21.023Z,81.49
2023-10-01T06:36:52.123Z,81.78
2023-10-01T06:39:21.902Z,82.82
2023-10-01T06:41:50.409Z,82.85
2023-10-01T06:44:20.682Z,83.30
2023-10-01T06:46:49.851Z,83.14
2023-10-01T06:49:19.968Z,83.79
2023-10-01T06:51:48.173Z,83.69
2023-10-01T06:54:19.359Z,82.03
2023-10-01T06:56:49.182Z,81.00
2023-10-01T06:59:18.694Z,80.42
2023-10-01T07:01:57.862Z,80.30
2023-10-01T07:04:26.242Z,79.94
2023-10-01T07:06:54.496Z,79.37
2023-10-01T07:09:28.638Z,79.63
2023-10-01T07:12:01.165Z,80.09
2023-10-01T07:14:40.121Z,79.65
2023-10-01T07:17:10.955Z,79.72
2023-10-01T07:19:39.389Z,79.33
2023-10-01T07:22:08.681Z,78.93
2023-10-01T07:24:37.122Z,78.67
2023-10-01T07:27:06.899Z,77.71
2023-10-01T07:29:36.464Z,77.40
2023-10-01T07:32:08.238Z,78.22
2023-10-01T07:34:40.624Z,79.75
2023-10-01T07:37:10.335Z,79.27
2023-10-01T07:39:41.313Z,79.17
2023-10-01T07:42:11.909Z,78.97
2023-10-01T07:44:41.091Z,79.08
2023-10-01T07:47:09.108Z,79.91
2023-10-01T07:49:49.217Z,80.88
2023-10-01T07:52:20.064Z,79.48
2023-10-01T07:54:50.686Z,77.95
2023-10-01T07:57:19.523Z,76.96
2023-10-01T07:59:53.952Z,76.09
2023-10-01T08:02:29.182Z,76.02
2023-10-01T08:05:00.237Z,75.82
2023-10-01T08:07:40.936Z,75.99
2023-10-01T08:10:19.481Z,74.86
2023-10-01T08:13:05.260Z,74.50
2023-10-01T08:15:39.437Z,74.35
2023-10-01T08:18:26.339Z,73.96
2023-10-01T08:21:01.662Z,74.40
2023-10-01T08:23:29.517Z,74.21
2023-10-01T08:25:58.059Z,74.05
2023-10-01T08:28:29.494Z,73.49
2023-10-01T08:31:03.660Z,73.48
2023-10-01T08:33:43.474Z,73.16
2023-10-01T08:36:15.281Z,72.95
2023-10-01T08:38:48.448Z,73.23
2023-10-01T08:41:33.325Z,73.96
2023-10-01T08:44:11.486Z,74.09
2023-10-01T08:46:42.646Z,74.21
2023-10-01T08:49:24.489Z,74.61
2023-10-01T08:52:15.532Z,75.45
2023-10-01T08:54:45.947Z,75.32
2023-10-01T08:57:19.068Z,74.84
2023-10-01T08:59:47.196Z,74.70
2023-10-01T09:02:17.502Z,74.50
2023-10-01T09:04:48.218Z,74.12
2023-10-01T09:07:20.399Z,75.03
2023-10-01T09:10:09.120Z,76.00
2023-10-01T09:12:47.063Z,75.54
2023-10-01T09:15:28.456Z,75.33
2023-10-01T09:17:59.431Z,74.93
2023-10-01T09:20:40.643Z,76.28
2023-10-01T09:23:10.693Z,74.38
2023-10-01T09:25:42.759Z,73.93
2023-10-01T09:28:24.772Z,73.66
2023-10-01T09:31:03.124Z,73.34
2023-10-01T09:33:33.442Z,73.26
2023-10-01T09:36:01.706Z,73.49
2023-10-01T09:38:31.362Z,72.88
2023-10-01T09:41:01.351Z,72.44
2023-10-01T09:43:32.668Z,72.42
2023-10-01T09:46:03.445Z,72.54
2023-10-01T09:48:35.010Z,72.31
2023-10-01T09:51:15.010Z,71.97
2023-10-01T09:53:49.383Z,72.08
2023-10-01T09:56:27.998Z,71.87
2023-10-01T09:59:05.011Z,71.50
2023-10-01T10:01:35.287Z,71.54
2023-10-01T10:04:05.005Z,72.72
2023-10-01T10:06:34.016Z,72.15
2023-10-01T10:09:08.720Z,71.52
2023-10-01T10:11:44.849Z,71.05
2023-10-01T10:14:57.782Z,70.69
2023-10-01T10:17:28.804Z,71.90
2023-10-01T10:20:23.809Z,71.52
2023-10-01T10:23:17.519Z,70.96
2023-10-01T10:25:47.330Z,71.14
2023-10-01T10:28:25.963Z,71.60
2023-10-01T10:31:35.375Z,71.78
2023-10-01T10:34:27.279Z,71.09
2023-10-01T10:36:56.320Z,71.93
2023-10-01T10:40:04.041Z,71.22
2023-10-01T10:42:34.708Z,70.60
2023-10-01T10:45:21.267Z,70.62
2023-10-01T10:48:01.120Z,72.10
2023-10-01T10:50:45.578Z,71.84
2023-10-01T10:53:21.560Z,71.05
2023-10-01T10:55:56.132Z,70.40
2023-10-01T10:58:27.485Z,70.79
2023-10-01T11:00:56.425Z,71.23
2023-10-01T11:03:42.101Z,70.47
2023-10-01T11:06:21.690Z,71.03
2023-10-01T11:08:53.456Z,70.93
2023-10-01T11:11:37.962Z,70.94
2023-10-01T11:14:17.525Z,71.70
2023-10-01T11:16:47.678Z,71.45
2023-10-01T11:19:17.789Z,70.70
2023-10-01T11:21:56.217Z,70.11
2023-10-01T11:24:32.100Z,70.50
2023-10-01T11:27:21.263Z,70.97
2023-10-01T11:30:13.972Z,72.04
2023-10-01T11:33:04.438Z,71.55
2023-10-01T11:35:35.369Z,71.94
2023-10-01T11:38:09.498Z,71.52
2023-10-01T11:40:56.591Z,70.48
2023-10-01T11:43:28.750Z,70.80
2023-10-01T11:46:25.035Z,70.75
2023-10-01T11:49:04.059Z,71.20
2023-10-01T11:51:45.193Z,69.78
2023-10-01T11:54:14.494Z,69.34
2023-10-01T11:56:44.477Z,70.09
2023-10-01T11:59:19.113Z,69.19
2023-10-01T12:01:53.392Z,69.93
2023-10-01T12:04:43.567Z,69.79
2023-10-01T12:07:19.375Z,70.40
2023-10-01T12:09:50.443Z,69.99
2023-10-01T12:12:19.680Z,69.64
2023-10-01T12:14:57.509Z,68.70
2023-10-01T12:17:28.515Z,69.29
2023-10-01T12:19:58.400Z,68.98
2023-10-01T12:22:26.483Z,68.87
2023-10-01T12:24:59.211Z,68.82
2023-10-01T12:27:43.321Z,68.75
2023-10-01T12:30:12.601Z,68.73
2023-10-01T12:32:49.467Z,68.37
2023-10-01T12:35:29.686Z,68.17
2023-10-01T12:38:29.077Z,67.33
2023-10-01T12:40:57.080Z,67.27
2023-10-01T12:43:38.100Z,67.49
2023-10-01T12:46:10.690Z,67.97
2023-10-01T12:48:42.637Z,66.84
2023-10-01T12:51:11.240Z,67.13
2023-10-01T12:53:49.096Z,66.93
2023-10-01T12:56:22.563Z,66.92
2023-10-01T12:58:57.071Z,65.73
2023-10-01T13:01:33.392Z,66.98
2023-10-01T13:04:22.843Z,66.33
2023-10-01T13:06:50.619Z,66.12
2023-10-01T13:09:55.050Z,66.44
2023-10-01T13:12:26.237Z,66.17
2023-10-01T13:15:12.882Z,66.09
2023-10-01T13:17:45.049Z,65.38
2023-10-01T13:20:21.043Z,65.21
2023-10-01T13:22:49.923Z,64.32
2023-10-01T13:25:21.171Z,64.81
2023-10-01T13:27:49.223Z,64.12
2023-10-01T13:30:21.734Z,64.34
2023-10-01T13:33:11.501Z,63.45
2023-10-01T13:35:54.053Z,62.91
2023-10-01T13:38:38.859Z,63.20
2023-10-01T13:41:24.359Z,62.98
2023-10-01T13:44:10.016Z,62.45
2023-10-01T13:46:55.217Z,61.97
2023-10-01T13:49:40.914Z,61.35
2023-10-01T13:52:27.903Z,61.20
2023-10-01T13:55:13.064Z,62.06
2023-10-01T13:57:58.624Z,61.62
2023-10-01T14:00:43.888Z,62.04
2023-10-01T14:03:29.330Z,62.26
2023-10-01T14:06:14.764Z,61.17
2023-10-01T14:08:46.854Z,60.56
2023-10-01T14:11:17.454Z,60.88
2023-10-01T14:13:49.158Z,61.50
2023-10-01T14:16:23.798Z,59.75
2023-10-01T14:18:59.681Z,59.45
2023-10-01T14:21:29.744Z,59.98
2023-10-01T14:24:20.324Z,60.57
2023-10-01T14:26:48.619Z,59.33
2023-10-01T14:29:23.418Z,58.79
2023-10-01T14:31:52.107Z,59.13
2023-10-01T14:34:21.536Z,58.03
2023-10-01T14:36:53.254Z,58.50
2023-10-01T14:39:31.553Z,57.83
2023-10-01T14:41:59.917Z,58.03
2023-10-01T14:44:27.916Z,57.25
2023-10-01T14:46:57.780Z,57.36
2023-10-01T14:49:26.295Z,57.15
2023-10-01T14:51:57.402Z,57.04
2023-10-01T14:54:30.238Z,58.13
2023-10-01T14:57:00.124Z,57.31
2023-10-01T14:59:33.940Z,56.61
2023-10-01T15:02:03.717Z,56.08
2023-10-01T15:04:36.951Z,56.80
2023-10-01T15:07:07.050Z,56.49
2023-10-01T15:09:39.634Z,56.61
2023-10-01T15:12:11.548Z,56.65
2023-10-01T15:15:00.237Z,56.16
2023-10-01T15:17:38.190Z,56.06
2023-10-01T15:20:10.385Z,56.05
2023-10-01T15:22:44.814Z,55.80
2023-10-01T15:25:14.764Z,55.61
2023-10-01T15:27:42.680Z,55.49
2023-10-01T15:30:22.544Z,55.33
2023-10-01T15:33:01.274Z,55.21
2023-10-01T15:35:31.659Z,54.71
2023-10-01T15:38:00.026Z,53.98
2023-10-01T15:40:29.532Z,54.26
2023-10-01T15:42:58.315Z,54.24
2023-10-01T15:45:26.723Z,56.04
2023-10-01T15:47:59.996Z,55.48
2023-10-01T15:50:39.546Z,55.60
2023-10-01T15:53:19.478Z,55.78
2023-10-01T15:56:00.359Z,55.64
2023-10-01T15:58:28.742Z,55.44
2023-10-01T16:00:58.800Z,55.90
2023-10-01T16:03:32.283Z,56.46
2023-10-01T16:06:10.379Z,57.86
2023-10-01T16:08:43.915Z,58.24
2023-10-01T16:11:14.790Z,58.96
2023-10-01T16:13:54.502Z,57.93
2023-10-01T16:16:27.919Z,57.36
2023-10-01T16:19:01.365Z,59.27
2023-10-01T16:21:32.428Z,60.63
2023-10-01T16:24:00.899Z,61.59
2023-10-01T16:26:34.196Z,61.82
2023-10-01T16:29:08.348Z,63.06
2023-10-01T16:31:36.748Z,63.62
2023-10-01T16:34:07.640Z,63.94
2023-10-01T16:36:39.920Z,64.71
2023-10-01T16:39:18.287Z,64.89
2023-10-01T16:41:50.417Z,65.72
2023-10-01T16:44:18.903Z,65.84
2023-10-01T16:46:58.168Z,65.50
2023-10-01T16:49:26.116Z,64.94
2023-10-01T16:51:56.431Z,64.83
2023-10-01T16:54:28.599Z,64.99
2023-10-01T16:56:59.576Z,66.04
2023-10-01T16:59:32.916Z,66.12
2023-10-01T17:02:02.515Z,66.30
2023-10-01T17:04:33.434Z,66.22
2023-10-01T17:07:15.252Z,66.59
2023-10-01T17:09:50.130Z,66.91
2023-10-01T17:12:24.551Z,67.20
2023-10-01T17:14:54.119Z,67.56
2023-10-01T17:17:22.285Z,68.96
2023-10-01T17:19:50.763Z,69.31
2023-10-01T17:22:23.249Z,68.64
2023-10-01T17:24:52.645Z,67.95
2023-10-01T17:27:22.897Z,68.23
2023-10-01T17:29:51.999Z,69.42
2023-10-01T17:32:21.653Z,69.75
2023-10-01T17:34:49.941Z,69.33
2023-10-01T17:37:23.720Z,69.13
2023-10-01T17:39:57.180Z,68.99
2023-10-01T17:42:28.365Z,69.26
2023-10-01T17:44:58.606Z,69.22
2023-10-01T17:47:31.376Z,69.35
2023-10-01T17:50:01.099Z,69.45
2023-10-01T17:52:32.694Z,69.58
2023-10-01T17:55:03.682Z,69.99
2023-10-01T17:57:38.980Z,70.29
2023-10-01T18:00:42.808Z,70.83
2023-10-01T18:03:11.630Z,71.14
2023-10-01T18:05:43.503Z,71.18
2023-10-01T18:08:12.388Z,71.48
2023-10-01T18:10:42.676Z,71.61
2023-10-01T18:13:16.227Z,71.87
2023-10-01T18:15:50.654Z,72.28
2023-10-01T18:18:24.502Z,72.45
2023-10-01T18:20:53.314Z,72.61
2023-10-01T18:23:21.368Z,72.85
2023-10-01T18:25:55.014Z,72.87
2023-10-01T18:28:25.907Z,73.11
2023-10-01T18:30:56.488Z,73.38
2023-10-01T18:33:29.605Z,73.25
2023-10-01T18:35:59.543Z,73.32
2023-10-01T18:38:29.450Z,73.23
2023-10-01T18:40:57.796Z,73.83
2023-10-01T18:43:28.051Z,74.06
2023-10-01T18:45:59.971Z,74.37
2023-10-01T18:48:31.732Z,74.74
2023-10-01T18:50:59.949Z,75.30
2023-10-01T18:53:28.701Z,75.42
2023-10-01T18:55:57.010Z,75.90
2023-10-01T18:58:25.343Z,76.25
2023-10-01T19:00:56.190Z,76.43
2023-10-01T19:03:25.962Z,76.46
2023-10-01T19:06:00.555Z,76.84
2023-10-01T19:08:30.216Z,77.04
2023-10-01T19:11:00.985Z,76.91
2023-10-01T19:13:31.374Z,77.15
2023-10-01T19:16:01.564Z,77.22
2023-10-01T19:18:31.070Z,77.57
2023-10-01T19:21:01.017Z,77.93
2023-10-01T19:23:40.551Z,77.92
2023-10-01T19:26:08.478Z,77.80
2023-10-01T19:28:37.082Z,77.76
2023-10-01T19:31:13.516Z,77.70
2023-10-01T19:33:44.863Z,77.84
2023-10-01T19:36:13.159Z,77.85
2023-10-01T19:38:47.928Z,78.17
2023-10-01T19:41:19.169Z,78.36
2023-10-01T19:43:48.166Z,78.45
2023-10-01T19:46:17.574Z,78.29
2023-10-01T19:48:50.879Z,78.35
2023-10-01T19:51:24.000Z,78.08
2023-10-01T19:54:01.958Z,78.26
2023-10-01T19:56:30.418Z,78.52
2023-10-01T19:59:08.767Z,78.45
2023-10-01T20:01:41.755Z,78.53
2023-10-01T20:04:11.988Z,78.50
2023-10-01T20:06:45.790Z,78.73
2023-10-01T20:09:25.719Z,78.61
2023-10-01T20:11:58.810Z,78.68
2023-10-01T20:14:28.881Z,78.98
2023-10-01T20:17:01.738Z,78.99
2023-10-01T20:19:31.453Z,79.34
2023-10-01T20:22:01.985Z,78.88
2023-10-01T20:24:29.934Z,79.22
2023-10-01T20:26:58.017Z,79.41
2023-10-01T20:29:27.515Z,78.95
2023-10-01T20:32:01.250Z,79.50
2023-10-01T20:34:30.747Z,79.99
2023-10-01T20:37:02.250Z,80.37
2023-10-01T20:39:40.094Z,80.31
2023-10-01T20:42:09.363Z,80.22
2023-10-01T20:44:37.385Z,80.23
2023-10-01T20:47:17.535Z,80.11
2023-10-01T20:49:49.911Z,79.71
2023-10-01T20:52:19.517Z,80.15
2023-10-01T20:54:48.008Z,80.22
2023-10-01T20:57:19.740Z,80.19
2023-10-01T20:59:47.846Z,80.33
2023-10-01T21:02:18.441Z,80.13
2023-10-01T21:04:52.225Z,80.23
2023-10-01T21:07:30.553Z,80.13
2023-10-01T21:09:59.230Z,80.03
2023-10-01T21:12:32.667Z,80.15
2023-10-01T21:15:01.416Z,80.11
2023-10-01T21:17:32.199Z,79.96
2023-10-01T21:20:12.416Z,80.35
2023-10-01T21:22:42.150Z,80.73
2023-10-01T21:25:23.045Z,80.04
2023-10-01T21:27:52.334Z,79.72
2023-10-01T21:30:20.485Z,79.91
2023-10-01T21:32:49.928Z,80.00
2023-10-01T21:35:21.859Z,80.16
2023-10-01T21:37:50.822Z,80.39
2023-10-01T21:40:21.624Z,80.43
2023-10-01T21:42:51.904Z,80.00
2023-10-01T21:45:41.149Z,80.40
2023-10-01T21:48:14.210Z,80.53
2023-10-01T21:50:45.104Z,80.29
2023-10-01T21:53:35.516Z,80.52
2023-10-01T21:56:06.589Z,80.37
2023-10-01T21:58:38.446Z,80.49
2023-10-01T22:01:24.972Z,80.64
2023-10-01T22:03:54.234Z,80.60
2023-10-01T22:06:30.747Z,80.42
2023-10-01T22:08:59.321Z,80.31
2023-10-01T22:11:29.023Z,80.24
2023-10-01T22:14:03.918Z,80.35
2023-10-01T22:16:37.769Z,80.30
2023-10-01T22:19:10.069Z,80.08
2023-10-01T22:21:39.471Z,79.63
2023-10-01T22:24:20.972Z,79.79
2023-10-01T22:26:51.340Z,79.05
2023-10-01T22:29:22.054Z,79.28
2023-10-01T22:31:52.614Z,79.45
2023-10-01T22:34:26.073Z,79.61
2023-10-01T22:37:03.637Z,79.79
2023-10-01T22:39:38.579Z,79.41
2023-10-01T22:42:23.049Z,79.44
2023-10-01T22:44:54.975Z,79.39
2023-10-01T22:47:23.794Z,79.22
2023-10-01T22:49:56.858Z,78.94
2023-10-01T22:52:31.251Z,79.49
2023-10-01T22:55:00.494Z,79.33
2023-10-01T22:57:42.114Z,79.32
2023-10-01T23:00:12.759Z,79.25
2023-10-01T23:02:48.315Z,79.21
2023-10-01T23:05:18.257Z,79.84
2023-10-01T23:07:48.633Z,79.27
2023-10-01T23:10:26.659Z,79.51
2023-10-01T23:13:08.350Z,79.20
2023-10-01T23:15:40.719Z,79.26
2023-10-01T23:18:19.325Z,79.46
2023-10-01T23:20:52.725Z,79.86
2023-10-01T23:23:29.617Z,79.84
2023-10-01T23:26:05.931Z,79.64
2023-10-01T23:28:36.507Z,79.86
2023-10-01T23:31:15.570Z,79.54
2023-10-01T23:33:46.782Z,79.31
2023-10-01T23:36:14.934Z,79.20
2023-10-01T23:38:57.058Z,79.15
2023-10-01T23:41:45.952Z,79.41
2023-10-01T23:44:14.061Z,79.26
2023-10-01T23:46:42.061Z,79.37
2023-10-01T23:49:12.932Z,79.37
2023-10-01T23:51:54.945Z,79.75
2023-10-01T23:54:28.697Z,79.78
2023-10-01T23:56:56.662Z,79.71
2023-10-01T23:59:33.994Z,79.92
